Time;durP1;ratioP1;P1;durP2;ratioP2;P2;SDS_P1;SDS_P2;PMS_P1;PMS_P2;Temp;Humidity;BMP_temperature;BMP_pressure;BME280_temperature;BME280_humidity;BME280_pressure;Samples;Min_cycle;Max_cycle;Signal;HPM_P1;HPM_P2
2021/05/03 00:02:13;;;;;;;6.78;2.75;;;;;;;21.69;54.00;98291.94;6247587;22;20376;-79
2021/05/03 00:04:38;;;;;;;9.68;3.90;;;;;;;21.61;54.14;98293.78;6272434;22;20422;-79
2021/05/03 00:07:04;;;;;;;7.55;3.10;;;;;;;21.59;53.80;98298.81;6247485;22;20417;-79
2021/05/03 00:09:29;;;;;;;7.93;2.72;;;;;;;21.55;54.30;98298.72;6272668;22;20489;-77
2021/05/03 00:11:55;;;;;;;5.07;2.60;;;;;;;21.54;54.19;98309.97;6272741;22;20452;-77
2021/05/03 00:14:20;;;;;;;11.88;3.83;;;;;;;21.50;54.26;98301.00;6274110;22;20070;-78
2021/05/03 00:16:46;;;;;;;6.97;3.00;;;;;;;21.46;54.46;98295.50;6247100;22;20003;-78
2021/05/03 00:19:11;;;;;;;10.07;2.80;;;;;;;21.44;54.73;98300.53;6272796;22;20416;-78
2021/05/03 00:21:37;;;;;;;5.63;4.10;;;;;;;21.37;54.67;98290.34;6272535;22;20425;-78
2021/05/03 00:24:03;;;;;;;12.82;3.20;;;;;;;21.35;55.27;98295.34;6247239;22;20306;-77
2021/05/03 00:26:28;;;;;;;6.07;2.70;;;;;;;21.35;55.79;98303.50;6246998;22;20429;-77
2021/05/03 00:28:54;;;;;;;7.38;2.88;;;;;;;21.33;56.20;98302.31;6247215;22;20008;-79
2021/05/03 00:31:19;;;;;;;8.95;3.05;;;;;;;21.30;56.63;98308.47;6246958;22;19999;-80
2021/05/03 00:33:45;;;;;;;8.10;3.05;;;;;;;21.31;56.61;98304.59;6272380;22;20344;-79
2021/05/03 00:36:10;;;;;;;10.52;3.80;;;;;;;21.30;56.72;98295.66;6272675;22;20425;-77
2021/05/03 00:38:36;;;;;;;9.73;3.10;;;;;;;21.27;57.04;98293.66;6246822;22;20429;-78
2021/05/03 00:41:02;;;;;;;5.97;2.47;;;;;;;21.28;57.14;98303.41;6247123;22;20460;-79
2021/05/03 00:43:28;;;;;;;6.93;2.67;;;;;;;21.24;57.36;98297.91;6246700;22;20003;-78
2021/05/03 00:45:54;;;;;;;12.82;3.33;;;;;;;21.25;57.33;98291.31;6247005;22;20383;-77
2021/05/03 00:48:20;;;;;;;12.55;4.13;;;;;;;21.25;56.91;98291.31;6246963;22;20004;-79
2021/05/03 00:50:47;;;;;;;7.15;3.90;;;;;;;21.25;57.08;98288.59;6246588;22;20332;-77
2021/05/03 00:53:13;;;;;;;12.07;3.55;;;;;;;21.22;57.29;98274.94;6246803;22;20372;-77
2021/05/03 00:55:40;;;;;;;9.48;3.90;;;;;;;21.20;57.21;98294.34;6246615;22;19996;-79
2021/05/03 00:58:06;;;;;;;9.50;2.70;;;;;;;21.22;56.38;98291.25;6246814;22;20000;-79
2021/05/03 01:00:32;;;;;;;6.10;2.20;;;;;;;21.22;55.71;98285.84;6246497;22;20014;-79
2021/05/03 01:02:58;;;;;;;10.50;2.97;;;;;;;21.24;54.59;98278.88;6246924;22;19996;-79
2021/05/03 01:05:28;;;;;;;10.80;2.75;;;;;;;21.30;54.01;98294.88;6264560;22;20015;-79
2021/05/03 01:07:55;;;;;;;8.23;2.78;;;;;;;21.33;53.59;98294.91;6277534;22;20046;-79
2021/05/03 01:10:21;;;;;;;7.70;2.90;;;;;;;21.39;53.41;98303.56;6303350;22;20117;-79
2021/05/03 01:12:46;;;;;;;10.57;2.97;;;;;;;21.41;51.72;98303.97;6304262;22;20030;-79
2021/05/03 01:15:12;;;;;;;7.35;3.05;;;;;;;21.43;49.47;98316.06;6303388;22;19995;-79
2021/05/03 01:17:42;;;;;;;6.10;2.25;;;;;;;21.46;48.14;98311.81;6302957;22;20006;-79
2021/05/03 01:20:15;;;;;;;8.30;3.22;;;;;;;21.48;46.46;98309.50;6277588;22;20305;-79
2021/05/03 01:22:41;;;;;;;7.40;2.63;;;;;;;21.50;45.63;98318.09;6303001;22;20344;-79
2021/05/03 01:25:09;;;;;;;7.90;1.98;;;;;;;21.53;45.63;98309.22;6303320;22;20023;-79
2021/05/03 01:27:35;;;;;;;9.80;2.25;;;;;;;21.56;44.45;98308.47;6302892;22;20003;-79
2021/05/03 01:30:06;;;;;;;4.95;2.08;;;;;;;21.55;44.17;98309.59;6303146;22;20441;-79
2021/05/03 01:32:32;;;;;;;8.30;2.53;;;;;;;21.59;43.82;98318.66;6302693;22;20005;-79
2021/05/03 01:34:57;;;;;;;9.32;2.78;;;;;;;21.61;43.98;98326.44;6303233;22;19999;-79
2021/05/03 01:37:23;;;;;;;4.45;2.47;;;;;;;21.62;43.76;98316.31;6277237;22;19995;-79
2021/05/03 01:39:48;;;;;;;5.63;2.53;;;;;;;21.59;42.89;98318.66;6303069;22;20409;-79
2021/05/03 01:42:14;;;;;;;7.63;2.60;;;;;;;21.61;43.44;98321.00;6304891;22;20428;-79
2021/05/03 01:44:40;;;;;;;4.88;1.85;;;;;;;21.58;42.77;98317.06;6302929;22;20014;-79
2021/05/03 01:47:06;;;;;;;5.78;1.98;;;;;;;21.58;42.81;98321.72;6303190;22;19999;-79
2021/05/03 01:49:32;;;;;;;7.40;1.70;;;;;;;21.56;40.98;98313.94;6277194;22;20010;-78
2021/05/03 01:51:58;;;;;;;9.55;2.78;;;;;;;21.57;40.20;98310.06;6277286;22;20430;-79
2021/05/03 01:54:23;;;;;;;8.40;2.70;;;;;;;21.56;39.88;98311.22;6303105;22;19995;-79
2021/05/03 01:56:49;;;;;;;9.52;2.03;;;;;;;21.57;38.42;98301.13;6302862;22;20445;-78
2021/05/03 01:59:14;;;;;;;8.80;2.83;;;;;;;21.55;38.38;98312.31;6277351;22;20022;-78
2021/05/03 02:01:40;;;;;;;8.30;2.17;;;;;;;21.56;37.10;98311.22;6302829;22;20007;-79
2021/05/03 02:04:10;;;;;;;9.05;2.20;;;;;;;21.57;37.13;98310.06;6302940;22;19995;-79
2021/05/03 02:06:39;;;;;;;5.32;1.50;;;;;;;21.60;36.80;98305.81;6277104;22;20042;-79
2021/05/03 02:09:10;;;;;;;6.75;2.25;;;;;;;21.61;36.67;98303.91;6302956;22;19995;-79
2021/05/03 02:11:37;;;;;;;7.78;2.30;;;;;;;21.64;36.35;98308.59;6278180;22;20078;-79
2021/05/03 02:14:03;;;;;;;6.93;1.83;;;;;;;21.62;35.65;98298.06;6304902;22;20007;-79
2021/05/03 02:16:29;;;;;;;5.57;1.95;;;;;;;21.64;35.84;98303.16;6279032;22;20004;-79
2021/05/03 02:18:55;;;;;;;6.72;2.15;;;;;;;21.64;35.77;98305.88;6304587;22;20481;-79
2021/05/03 02:21:21;;;;;;;9.13;1.92;;;;;;;21.63;36.13;98309.72;6279021;22;20037;-77
2021/05/03 02:23:46;;;;;;;4.93;1.90;;;;;;;21.62;35.32;98319.03;6278724;22;20006;-79
2021/05/03 02:26:12;;;;;;;7.20;2.42;;;;;;;21.59;34.80;98320.56;6278890;22;19999;-79
2021/05/03 02:28:37;;;;;;;9.60;1.83;;;;;;;21.56;34.34;98313.94;6306100;22;20000;-79
2021/05/03 02:31:03;;;;;;;4.78;2.00;;;;;;;21.57;33.42;98312.00;6278834;22;19999;-79
2021/05/03 02:33:28;;;;;;;8.68;3.00;;;;;;;21.55;33.16;98323.22;6304668;22;20021;-79
2021/05/03 02:35:54;;;;;;;7.03;2.00;;;;;;;21.55;33.35;98323.22;6304442;22;20007;-79
2021/05/03 02:38:20;;;;;;;5.82;1.85;;;;;;;21.55;32.93;98320.50;6304748;22;20061;-79
2021/05/03 02:40:45;;;;;;;12.93;2.45;;;;;;;21.55;32.69;98323.22;6305942;22;19999;-79
2021/05/03 02:43:11;;;;;;;6.50;1.77;;;;;;;21.57;32.66;98337.25;6278775;22;20007;-79
2021/05/03 02:45:36;;;;;;;7.32;2.25;;;;;;;21.58;32.48;98336.13;6304399;22;19995;-79
2021/05/03 02:48:02;;;;;;;7.18;2.10;;;;;;;21.58;32.21;98335.31;6278721;22;20003;-79
2021/05/03 02:50:29;;;;;;;5.03;1.38;;;;;;;21.58;31.78;98351.63;6278327;22;20003;-79
2021/05/03 02:52:55;;;;;;;5.60;1.45;;;;;;;21.57;31.83;98356.31;6305853;22;19999;-79
2021/05/03 02:55:21;;;;;;;13.55;2.28;;;;;;;21.58;31.21;98359.81;6304434;22;20120;-79
2021/05/03 02:57:48;;;;;;;7.07;2.47;;;;;;;21.57;31.36;98364.47;6304173;22;20377;-79
2021/05/03 03:00:26;;;;;;;10.10;1.45;;;;;;;21.59;31.45;98366.81;6304468;22;20003;-79
2021/05/03 03:02:52;;;;;;;7.15;1.20;;;;;;;21.61;31.17;98374.63;6304233;22;20007;-79
2021/05/03 03:05:18;;;;;;;7.22;2.80;;;;;;;21.60;30.63;98368.38;6304158;22;20034;-79
2021/05/03 03:07:43;;;;;;;7.68;1.65;;;;;;;21.61;30.16;98369.19;6304074;22;20002;-79
2021/05/03 03:10:09;;;;;;;9.30;1.80;;;;;;;21.59;30.24;98364.91;6278565;22;20006;-79
2021/05/03 03:12:36;;;;;;;8.55;1.60;;;;;;;21.62;30.53;98381.63;6303776;22;20033;-79
2021/05/03 03:15:06;;;;;;;3.30;1.45;;;;;;;21.62;29.70;98376.19;6304268;22;19999;-79
2021/05/03 03:17:31;;;;;;;8.15;1.75;;;;;;;21.61;29.50;98377.34;6304185;22;19999;-79
2021/05/03 03:19:57;;;;;;;7.35;2.30;;;;;;;21.64;29.89;98388.28;6303959;22;20078;-79
2021/05/03 03:22:22;;;;;;;4.78;2.03;;;;;;;;;;6303699;22;19995;-79
2021/05/03 03:24:47;;;;;;;6.28;2.30;;;;;;;;;;6278158;22;20006;-79
2021/05/03 03:27:13;;;;;;;5.30;1.63;;;;;;;21.67;28.21;98403.09;6278401;22;20003;-79
2021/05/03 03:29:38;;;;;;;6.40;1.50;;;;;;;21.72;28.10;98424.56;6303789;22;20078;-79
2021/05/03 03:32:04;;;;;;;5.82;1.77;;;;;;;21.73;28.57;98434.28;6278251;22;20089;-78
2021/05/03 03:34:30;;;;;;;4.78;1.63;;;;;;;21.75;28.09;98434.69;6303746;22;20065;-79
2021/05/03 03:36:55;;;;;;;9.27;1.98;;;;;;;21.75;28.51;98437.41;6303753;22;20403;-78
2021/05/03 03:39:21;;;;;;;5.20;1.67;;;;;;;21.79;28.27;98437.47;6304073;22;19999;-78
2021/05/03 03:41:46;;;;;;;2.83;1.10;;;;;;;21.79;27.87;98443.72;6305886;22;19996;-78
2021/05/03 03:44:12;;;;;;;5.82;1.77;;;;;;;21.82;27.55;98445.69;6303991;22;20003;-78
2021/05/03 03:46:37;;;;;;;3.15;1.60;;;;;;;21.86;26.84;98462.06;6277746;22;20003;-79
2021/05/03 03:49:04;;;;;;;5.00;1.23;;;;;;;21.87;26.62;98471.81;6303952;22;20002;-78
2021/05/03 03:51:29;;;;;;;2.30;0.73;;;;;;;21.87;26.15;98485.41;6303779;22;20003;-78
2021/05/03 03:53:55;;;;;;;6.45;1.20;;;;;;;21.89;26.79;98475.72;6303550;22;20455;-79
2021/05/03 03:56:22;;;;;;;8.77;2.00;;;;;;;21.89;27.27;98473.00;6278095;22;20078;-78
2021/05/03 03:58:48;;;;;;;5.53;1.23;;;;;;;21.90;27.47;98458.25;6305254;22;20022;-79
2021/05/03 04:01:14;;;;;;;5.30;1.80;;;;;;;21.90;27.52;98463.69;6278036;22;20082;-79
2021/05/03 04:03:48;;;;;;;7.25;2.67;;;;;;;21.91;27.79;98468.00;6277725;22;20033;-79
2021/05/03 04:26:47;;;;;;;7.75;1.52;;;;;;;22.60;25.34;98493.47;6304909;22;20443;-79
2021/05/03 04:29:12;;;;;;;5.82;2.05;;;;;;;22.72;25.10;98495.16;6277959;22;19999;-79
2021/05/03 04:31:38;;;;;;;7.00;1.85;;;;;;;22.88;24.38;98505.88;6303375;22;20003;-79
2021/05/03 04:34:03;;;;;;;7.18;2.25;;;;;;;23.08;24.55;98495.56;6303052;22;19999;-78
2021/05/03 04:36:29;;;;;;;3.15;1.40;;;;;;;23.28;24.24;98498.16;6303550;22;19999;-79
2021/05/03 04:38:55;;;;;;;5.75;2.08;;;;;;;23.28;24.20;98490.75;6277376;22;20031;-79
2021/05/03 04:41:20;;;;;;;10.75;1.90;;;;;;;23.32;24.53;98494.28;6303459;22;20097;-79
2021/05/03 04:43:46;;;;;;;7.60;1.20;;;;;;;23.35;24.78;98520.03;6304764;22;20003;-79
2021/05/03 04:46:11;;;;;;;4.00;1.38;;;;;;;23.28;25.65;98522.72;6303394;22;20014;-79
2021/05/03 04:48:37;;;;;;;5.35;2.13;;;;;;;23.22;25.60;98532.34;6303241;22;20387;-79
2021/05/03 04:51:03;;;;;;;5.72;1.35;;;;;;;23.09;26.25;98526.38;6302766;22;20002;-79
2021/05/03 04:53:29;;;;;;;3.83;1.98;;;;;;;23.00;27.34;98529.38;6303295;22;20393;-79
2021/05/03 04:55:54;;;;;;;2.78;1.38;;;;;;;22.81;29.72;98554.84;6302973;22;20006;-79
2021/05/03 04:58:20;;;;;;;7.43;2.15;;;;;;;22.64;30.72;98558.91;6303190;22;20003;-79
2021/05/03 05:00:46;;;;;;;2.28;1.13;;;;;;;22.46;32.54;98570.38;6302947;22;19999;-79
2021/05/03 05:03:11;;;;;;;5.80;2.20;;;;;;;22.37;34.01;98578.78;6303218;22;20027;-79
2021/05/03 05:05:37;;;;;;;4.40;1.33;;;;;;;22.35;33.65;98589.25;6302756;22;20015;-79
2021/05/03 05:08:03;;;;;;;8.38;2.38;;;;;;;22.33;32.78;98579.88;6277072;22;20269;-80
2021/05/03 05:10:28;;;;;;;7.68;2.72;;;;;;;22.52;30.88;98587.97;6303118;22;20004;-80
2021/05/03 05:12:54;;;;;;;3.38;1.50;;;;;;;22.84;30.96;98582.16;6302746;22;20030;-80
2021/05/03 05:15:19;;;;;;;5.32;1.10;;;;;;;23.13;29.24;98587.97;6303115;22;20003;-80
2021/05/03 05:17:48;;;;;;;2.67;1.17;;;;;;;23.44;29.01;98591.47;6302536;22;19999;-78
2021/05/03 05:20:15;;;;;;;2.83;1.55;;;;;;;23.72;28.80;98586.69;6277334;22;19999;-79
2021/05/03 05:22:41;;;;;;;5.90;1.73;;;;;;;23.94;28.95;98606.81;6277431;22;20011;-79
2021/05/03 05:25:07;;;;;;;6.25;1.50;;;;;;;24.05;28.99;98610.41;6277386;22;20000;-80
2021/05/03 05:27:34;;;;;;;3.92;1.10;;;;;;;24.16;29.01;98612.41;6277309;22;19996;-80
2021/05/03 05:29:59;;;;;;;6.13;1.75;;;;;;;24.04;28.48;98599.84;6302744;22;20045;-79
2021/05/03 05:32:25;;;;;;;3.47;1.38;;;;;;;23.95;28.39;98611.88;6277328;22;20019;-80
2021/05/03 05:34:50;;;;;;;6.28;1.90;;;;;;;23.87;28.59;98626.59;6302789;22;20003;-80
2021/05/03 05:37:16;;;;;;;5.32;2.03;;;;;;;23.78;29.02;98620.66;6303052;22;20026;-80
2021/05/03 05:39:41;;;;;;;1.83;1.08;;;;;;;23.64;28.69;98624.81;6305673;22;20088;-79
2021/05/03 05:42:07;;;;;;;2.78;1.25;;;;;;;23.50;28.89;98611.78;6302848;22;20003;-77
2021/05/03 05:44:33;;;;;;;3.70;1.48;;;;;;;23.47;29.06;98609.81;6303010;22;20011;-78
2021/05/03 05:46:59;;;;;;;3.75;1.27;;;;;;;23.45;28.65;98609.41;6304971;22;20029;-78
2021/05/03 05:49:24;;;;;;;5.72;2.15;;;;;;;23.43;29.25;98619.13;6305127;22;20448;-78
2021/05/03 05:51:50;;;;;;;2.58;1.23;;;;;;;23.44;29.64;98632.38;6304690;22;20007;-79
2021/05/03 05:54:16;;;;;;;4.40;1.20;;;;;;;23.38;29.32;98628.44;6305392;22;19999;-78
2021/05/03 05:56:41;;;;;;;3.65;1.58;;;;;;;23.22;29.42;98623.19;6305413;22;20431;-78
2021/05/03 05:59:07;;;;;;;4.07;1.60;;;;;;;23.10;29.33;98626.13;6304808;22;20468;-80
2021/05/03 06:01:33;;;;;;;2.47;1.08;;;;;;;23.04;29.78;98631.09;6304911;22;20003;-81
2021/05/03 06:03:58;;;;;;;2.33;0.90;;;;;;;22.95;29.37;98633.31;6279022;22;20007;-79
2021/05/03 06:06:24;;;;;;;3.42;1.45;;;;;;;22.88;29.46;98625.06;6278633;22;20462;-79
2021/05/03 06:08:49;;;;;;;5.25;1.98;;;;;;;22.93;29.27;98628.22;6278883;22;20003;-80
2021/05/03 06:11:15;;;;;;;3.83;1.38;;;;;;;23.07;29.06;98614.00;6279096;22;19999;-80
2021/05/03 06:13:41;;;;;;;4.13;1.60;;;;;;;23.27;28.50;98625.56;6305031;22;20010;-79
2021/05/03 06:16:07;;;;;;;6.07;1.30;;;;;;;23.42;28.13;98623.78;6278830;22;20074;-79
2021/05/03 06:18:33;;;;;;;4.57;1.30;;;;;;;23.56;27.79;98623.16;6278993;22;20444;-79
2021/05/03 06:20:58;;;;;;;5.65;2.15;;;;;;;23.70;27.84;98624.47;6278899;22;20007;-79
2021/05/03 06:23:24;;;;;;;3.22;0.90;;;;;;;23.77;27.87;98619.88;6279103;22;20332;-80
2021/05/03 06:25:50;;;;;;;2.45;0.93;;;;;;;23.82;27.77;98627.72;6304536;22;20007;-80
2021/05/03 06:28:15;;;;;;;1.63;0.88;;;;;;;23.83;27.64;98631.25;6304853;22;20437;-79
2021/05/03 06:30:41;;;;;;;3.05;1.17;;;;;;;23.80;27.40;98637.44;6304628;22;20055;-79
2021/05/03 06:33:06;;;;;;;3.72;1.23;;;;;;;23.80;26.89;98629.25;6304348;22;19999;-79
2021/05/03 06:35:33;;;;;;;6.50;1.70;;;;;;;23.86;27.31;98629.69;6304530;22;20034;-79
2021/05/03 06:37:59;;;;;;;4.78;1.83;;;;;;;23.94;26.70;98623.19;6304537;22;20003;-79
2021/05/03 06:40:25;;;;;;;3.42;1.48;;;;;;;24.05;26.67;98626.00;6304744;22;19999;-79
2021/05/03 06:42:50;;;;;;;4.70;2.15;;;;;;;24.20;26.88;98635.09;6304287;22;20090;-79
2021/05/03 06:45:18;;;;;;;5.72;1.88;;;;;;;24.32;26.71;98642.25;6278827;22;20333;-79
2021/05/03 06:47:46;;;;;;;6.82;1.80;;;;;;;24.51;26.40;98636.53;6278843;22;20000;-79
2021/05/03 06:50:13;;;;;;;1.98;1.15;;;;;;;24.61;26.05;98640.50;6304628;22;20062;-78
2021/05/03 06:52:40;;;;;;;5.35;1.75;;;;;;;24.73;26.03;98636.66;6304469;22;20000;-78
2021/05/03 06:55:06;;;;;;;5.70;1.38;;;;;;;24.85;25.88;98647.31;6278318;22;19999;-78
2021/05/03 06:57:32;;;;;;;13.43;1.55;;;;;;;24.98;25.60;98661.44;6278510;22;20003;-78
2021/05/03 06:59:59;;;;;;;2.85;1.20;;;;;;;25.06;25.88;98663.06;6304093;22;20038;-79
2021/05/03 07:02:25;;;;;;;3.22;1.30;;;;;;;25.25;25.76;98655.69;6305778;22;20003;-79
2021/05/03 07:04:50;;;;;;;7.32;1.48;;;;;;;25.44;26.00;98662.06;6303736;22;20391;-78
2021/05/03 07:07:16;;;;;;;3.60;1.35;;;;;;;25.53;25.15;98648.78;6278776;22;20409;-78
2021/05/03 07:09:47;;;;;;;7.45;1.00;;;;;;;25.63;24.88;98664.47;6278812;22;20014;-78
2021/05/03 07:12:14;;;;;;;7.55;1.65;;;;;;;25.72;24.68;98664.13;6306000;22;20098;-79
2021/05/03 07:14:40;;;;;;;2.53;0.88;;;;;;;25.77;24.53;98652.78;6304464;22;20004;-79
2021/05/03 07:17:06;;;;;;;1.60;1.10;;;;;;;25.75;24.41;98654.34;6303995;22;20443;-79
2021/05/03 07:19:34;;;;;;;4.40;1.52;;;;;;;25.82;25.38;98646.91;6304280;22;20331;-79
2021/05/03 07:22:07;;;;;;;4.15;1.45;;;;;;;25.88;25.15;98671.97;6278099;22;20035;-78
2021/05/03 07:24:35;;;;;;;3.33;1.25;;;;;;;25.80;24.67;98660.19;6278454;22;20340;-79
2021/05/03 07:27:00;;;;;;;4.75;0.95;;;;;;;25.75;24.47;98676.25;6303953;22;20007;-79
2021/05/03 07:29:26;;;;;;;2.17;1.40;;;;;;;25.71;25.03;98673.50;6304044;22;20082;-79
2021/05/03 07:31:51;;;;;;;5.05;1.05;;;;;;;25.77;24.99;98673.88;6303889;22;20007;-78
2021/05/03 07:34:17;;;;;;;13.23;1.65;;;;;;;25.80;24.77;98689.56;6278265;22;20033;-77
2021/05/03 07:36:44;;;;;;;2.00;1.27;;;;;;;25.77;25.15;98685.63;6305746;22;20416;-79
2021/05/03 07:39:09;;;;;;;3.90;1.05;;;;;;;25.79;25.21;98698.94;6278032;22;20377;-79
2021/05/03 07:41:35;;;;;;;3.22;1.40;;;;;;;25.76;25.47;98686.81;6304090;22;20051;-79
2021/05/03 07:44:02;;;;;;;3.45;1.13;;;;;;;25.68;25.18;98691.50;6303726;22;20417;-78
2021/05/03 07:46:28;;;;;;;2.28;0.90;;;;;;;25.70;25.53;98683.66;6304038;22;20467;-78
2021/05/03 07:48:56;;;;;;;3.67;1.30;;;;;;;25.74;25.50;98680.94;6277775;22;19999;-78
2021/05/03 07:51:21;;;;;;;;;;;;;;;25.80;25.40;98686.81;6304091;22;20003;-79
2021/05/03 07:53:47;;;;;;;5.85;1.33;;;;;;;25.80;25.70;98681.34;6278210;22;20468;-79
2021/05/03 07:56:15;;;;;;;3.35;1.55;;;;;;;25.84;25.69;98671.97;6303702;22;20038;-78
2021/05/03 07:58:45;;;;;;;3.20;1.75;;;;;;;25.90;26.47;98675.09;6278499;22;20512;-78
2021/05/03 08:01:11;;;;;;;4.15;1.13;;;;;;;25.87;26.31;98682.13;6305717;22;20007;-78
2021/05/03 08:03:39;;;;;;;4.20;1.52;;;;;;;25.91;26.41;98687.63;6303857;22;20113;-78
2021/05/03 08:06:12;;;;;;;5.57;1.58;;;;;;;25.89;26.23;98704.44;6303676;22;20007;-78
2021/05/03 08:08:37;;;;;;;7.25;1.35;;;;;;;25.86;26.62;98699.72;6277689;22;20003;-78
2021/05/03 08:11:03;;;;;;;3.17;1.45;;;;;;;25.88;26.80;98713.06;6277908;22;20309;-78
2021/05/03 08:13:29;;;;;;;4.60;1.33;;;;;;;25.93;26.79;98712.69;6304020;22;20082;-78
2021/05/03 08:16:01;;;;;;;4.80;1.20;;;;;;;25.83;26.76;98705.19;6303339;22;20421;-78
2021/05/03 08:18:27;;;;;;;3.95;1.33;;;;;;;25.84;26.48;98706.78;6277892;22;20562;-78
2021/05/03 08:20:54;;;;;;;4.03;1.50;;;;;;;25.89;26.80;98704.44;6303391;22;20023;-78
2021/05/03 08:23:20;;;;;;;3.85;1.35;;;;;;;25.92;26.99;98691.16;6303779;22;20086;-78
2021/05/03 08:25:54;;;;;;;7.72;1.42;;;;;;;25.91;27.30;98698.56;6304913;22;20514;-79
2021/05/03 08:28:20;;;;;;;3.50;1.55;;;;;;;25.92;27.63;98697.41;6304916;22;20005;-77
2021/05/03 08:30:48;;;;;;;5.00;1.23;;;;;;;26.00;27.98;98696.25;6277666;22;20424;-76
2021/05/03 08:33:14;;;;;;;4.00;1.20;;;;;;;26.00;27.43;98679.00;6277626;22;20003;-76
2021/05/03 08:35:40;;;;;;;4.40;1.20;;;;;;;26.05;27.10;98684.91;6305054;22;20449;-78
2021/05/03 08:38:05;;;;;;;4.10;1.30;;;;;;;26.05;26.76;98679.44;6303310;22;20006;-77
2021/05/03 08:40:32;;;;;;;5.35;1.30;;;;;;;26.10;26.81;98680.22;6303619;22;20345;-77
2021/05/03 08:43:01;;;;;;;1.60;1.40;;;;;;;26.15;26.49;98688.09;6277615;22;20446;-78
2021/05/03 08:45:26;;;;;;;3.50;1.48;;;;;;;26.15;26.98;98682.59;6277951;22;20006;-79
2021/05/03 08:50:52;;;;;;;2.05;1.23;;;;;;;26.14;25.90;98689.25;6304974;22;19999;-78
2021/05/03 08:53:26;;;;;;;7.03;1.13;;;;;;;26.16;26.79;98689.66;6277749;22;20003;-78
2021/05/03 08:55:51;;;;;;;4.68;1.38;;;;;;;26.22;26.84;98699.06;6305291;22;20432;-79
2021/05/03 08:58:17;;;;;;;7.07;1.35;;;;;;;26.31;26.50;98707.66;6303124;22;20068;-79
2021/05/03 09:00:43;;;;;;;2.25;1.33;;;;;;;26.35;26.49;98686.53;6277973;22;20045;-78
2021/05/03 09:03:12;;;;;;;3.10;1.15;;;;;;;26.42;25.87;98691.22;6277295;22;20006;-78
2021/05/03 09:05:41;;;;;;;3.20;1.20;;;;;;;26.46;25.66;98683.00;6302914;22;20014;-78
2021/05/03 09:08:09;;;;;;;7.97;1.92;;;;;;;26.39;26.35;98685.75;6304314;22;20010;-78
2021/05/03 09:10:43;;;;;;;5.70;1.63;;;;;;;26.42;26.68;98688.47;6303365;22;19999;-78
2021/05/03 09:13:13;;;;;;;3.30;1.65;;;;;;;26.44;25.27;98694.38;6277198;22;20003;-78
2021/05/03 09:15:40;;;;;;;2.15;0.93;;;;;;;26.46;26.05;98677.50;6277736;22;20053;-78
2021/05/03 09:18:06;;;;;;;4.22;1.70;;;;;;;26.42;26.87;98683.00;6303051;22;19995;-80
2021/05/03 09:20:32;;;;;;;2.30;1.35;;;;;;;26.41;25.88;98688.88;6304039;22;20010;-78
2021/05/03 09:25:49;;;;;;;2.40;1.20;;;;;;;26.27;25.58;98687.69;6306869;22;20009;-78
2021/05/03 09:28:19;;;;;;;1.75;1.00;;;;;;;26.22;25.89;98679.88;6307004;22;20549;-78
2021/05/03 09:30:57;;;;;;;2.72;1.33;;;;;;;26.21;26.31;98679.06;6305483;22;20078;-78
2021/05/03 09:33:28;;;;;;;4.70;1.20;;;;;;;26.27;26.45;98695.13;6279665;22;20478;-78
2021/05/03 09:36:00;;;;;;;3.15;2.05;;;;;;;26.34;26.84;98687.72;6305293;22;19999;-79
2021/05/03 09:38:36;;;;;;;4.97;1.30;;;;;;;26.45;26.33;98689.66;6305255;22;20177;-78
2021/05/03 09:41:26;;;;;;;4.05;0.95;;;;;;;26.49;26.51;98677.50;6305062;22;20428;-78
2021/05/03 09:43:55;;;;;;;2.55;1.40;;;;;;;26.56;26.47;98678.69;6293638;22;20002;-78
2021/05/03 09:46:47;;;;;;;4.35;1.40;;;;;;;26.63;25.95;98687.69;6305300;22;20007;-78
2021/05/03 09:49:16;;;;;;;2.53;1.25;;;;;;;26.71;26.13;98691.22;6304860;22;20009;-78
2021/05/03 09:51:50;;;;;;;2.20;1.08;;;;;;;26.70;26.35;98700.63;6279218;22;20003;-78
2021/05/03 09:54:30;;;;;;;3.17;0.95;;;;;;;26.75;25.45;98699.47;6304407;22;20523;-79
2021/05/03 09:57:10;;;;;;;2.45;0.85;;;;;;;26.81;24.76;98706.13;6279161;22;20443;-78
2021/05/03 09:59:49;;;;;;;3.92;1.88;;;;;;;26.81;25.03;98715.13;6279049;22;20030;-78
2021/05/03 10:02:33;;;;;;;1.75;0.90;;;;;;;26.77;24.17;98703.38;6306098;22;20003;-78
2021/05/03 10:05:09;;;;;;;2.15;1.27;;;;;;;26.74;24.69;98695.13;6306184;22;20007;-79
2021/05/03 10:07:41;;;;;;;3.88;1.40;;;;;;;26.72;25.45;98709.25;6306370;22;19996;-78
2021/05/03 10:10:55;;;;;;;4.25;1.10;;;;;;;26.71;25.32;98701.38;6278606;22;20424;-78
2021/05/03 10:12:59;;;;;;;2.47;1.20;;;;;;;26.74;26.16;98711.59;6301043;22;20002;-79
2021/05/03 10:15:25;;;;;;;4.65;1.50;;;;;;;26.70;26.51;98714.34;6304856;22;20165;-78
2021/05/03 10:17:50;;;;;;;4.45;1.30;;;;;;;26.71;26.92;98726.06;6304855;22;20038;-78
2021/05/03 10:20:19;;;;;;;4.80;1.40;;;;;;;26.78;26.52;98721.41;6278664;22;20033;-78
2021/05/03 10:22:50;;;;;;;4.63;1.73;;;;;;;26.79;26.75;98719.44;6278918;22;20034;-78
2021/05/03 10:25:18;;;;;;;1.88;1.35;;;;;;;26.75;26.05;98724.16;6306079;22;20003;-79
2021/05/03 10:27:47;;;;;;;4.28;1.13;;;;;;;26.77;26.84;98727.28;6304602;22;20052;-78
2021/05/03 10:30:25;;;;;;;3.67;1.30;;;;;;;26.75;26.78;98719.44;6304125;22;20007;-79
2021/05/03 10:33:05;;;;;;;6.55;1.50;;;;;;;26.77;27.09;98730.00;6278489;22;20007;-79
2021/05/03 10:35:38;;;;;;;3.05;1.23;;;;;;;26.82;27.93;98726.91;6304563;22;20003;-79
2021/05/03 10:38:04;;;;;;;3.72;1.48;;;;;;;26.88;27.66;98733.56;6304207;22;20003;-79
2021/05/03 10:40:33;;;;;;;6.18;1.58;;;;;;;26.94;26.95;98729.22;6304200;22;20113;-79
2021/05/03 10:43:01;;;;;;;7.32;1.65;;;;;;;26.93;27.55;98729.63;6304365;22;20010;-78
2021/05/03 10:56:56;;;;;;;4.90;2.30;;;;;;;27.09;27.76;98710.00;6306008;22;20027;-78
2021/05/03 10:59:22;;;;;;;8.20;1.80;;;;;;;27.15;28.05;98716.63;6304082;22;19995;-77
2021/05/03 11:01:54;;;;;;;5.88;2.08;;;;;;;27.13;27.88;98713.50;6304299;22;20007;-77
2021/05/03 11:04:23;;;;;;;5.45;2.05;;;;;;;27.12;27.15;98709.19;6278202;22;20019;-78
2021/05/03 11:06:49;;;;;;;6.05;2.38;;;;;;;27.07;27.41;98701.38;6278682;22;20007;-79
2021/05/03 11:12:12;;;;;;;5.43;2.03;;;;;;;26.91;28.21;98710.03;6305841;22;20062;-78
2021/05/03 11:14:41;;;;;;;4.13;2.38;;;;;;;26.90;27.76;98705.72;6305637;22;20006;-79
2021/05/03 11:17:13;;;;;;;6.30;1.90;;;;;;;26.92;27.75;98698.66;6278129;22;20026;-79
2021/05/03 11:19:56;;;;;;;4.82;2.42;;;;;;;26.93;27.75;98696.69;6278438;22;20007;-79
2021/05/03 11:22:25;;;;;;;4.47;1.77;;;;;;;26.96;27.98;98702.16;6278060;22;20011;-79
2021/05/03 11:24:58;;;;;;;5.80;2.40;;;;;;;26.94;27.63;98706.47;6305588;22;20014;-79
2021/05/03 11:30:14;;;;;;;2.78;1.50;;;;;;;27.00;27.37;98691.97;6305305;22;19995;-79
2021/05/03 11:32:40;;;;;;;4.10;2.20;;;;;;;26.95;27.20;98678.66;6305726;22;20002;-79
2021/05/03 11:38:15;;;;;;;6.53;1.73;;;;;;;26.85;27.78;98687.69;6305393;22;20010;-79
2021/05/03 11:41:15;;;;;;;5.10;1.58;;;;;;;26.88;27.18;98694.34;6278350;22;20454;-78
2021/05/03 11:46:31;;;;;;;3.08;1.90;;;;;;;27.05;27.99;98699.03;6305310;22;19999;-78
2021/05/03 11:48:59;;;;;;;3.85;1.70;;;;;;;27.17;26.61;98681.31;6304090;22;20040;-79
2021/05/03 11:51:25;;;;;;;;;;;;;;;27.20;26.25;98677.81;6278388;22;19999;-78
2021/05/03 11:53:51;;;;;;;3.20;1.10;;;;;;;27.26;26.73;98670.72;6305313;22;19956;-78
2021/05/03 11:56:28;;;;;;;2.72;1.45;;;;;;;27.23;27.31;98674.25;6305303;22;20000;-78
2021/05/03 11:58:59;;;;;;;5.68;1.55;;;;;;;27.26;27.74;98676.22;6278479;22;20309;-79
2021/05/03 12:01:29;;;;;;;3.90;1.20;;;;;;;27.16;27.90;98671.56;6303562;22;20029;-79
2021/05/03 12:03:59;;;;;;;3.38;1.10;;;;;;;27.19;28.07;98667.22;6305338;22;20004;-78
2021/05/03 12:06:42;;;;;;;2.63;1.40;;;;;;;27.17;27.96;98667.59;6272323;22;20019;-78
2021/05/03 12:09:13;;;;;;;2.13;1.92;;;;;;;27.20;28.15;98664.06;6272805;22;20070;-79
2021/05/03 12:11:52;;;;;;;6.18;1.17;;;;;;;27.20;27.48;98669.56;6247391;22;20007;-78
2021/05/03 12:14:18;;;;;;;5.85;0.80;;;;;;;27.19;27.81;98672.72;6272516;22;20082;-78
2021/05/03 12:16:43;;;;;;;2.65;1.25;;;;;;;27.22;27.76;98660.94;6272791;22;20003;-79
2021/05/03 12:19:18;;;;;;;4.18;1.70;;;;;;;27.12;27.75;98655.09;6272674;22;19996;-79
2021/05/03 12:21:44;;;;;;;4.32;0.95;;;;;;;27.18;27.88;98660.94;6272769;22;20379;-78
2021/05/03 12:24:19;;;;;;;0.77;0.55;;;;;;;27.23;27.67;98654.25;6272383;22;19996;-78
2021/05/03 12:26:58;;;;;;;2.05;1.00;;;;;;;27.26;27.21;98658.97;6272685;22;20018;-78